Terminal Aerodrome Forecast
Issued by NWS Lake Charles, LA

Home | Current Version | Previous Version | Text Only | Print | Product List | Glossary On
Versions: 1 2 3 4 5 6 7 8 9 10 11 12 13 14 15 16 17 18 19 20 21 22
000
FTUS44 KLCH 200541
TAFARA
TAF
KARA 200541Z 2006/2106 15003KT 1/2SM FG VV004
      TEMPO 2006/2008 2SM BR BKN004
     FM200800 18003KT 1/4SM FG VV003
     FM201500 22006KT 4SM BR BKN007 BKN020
     FM201600 23009KT P6SM SCT025 SCT250
     FM210100 17008KT P6SM VCSH BKN007 OVC025=

USA.gov is the U.S. government's official web portal to all federal, state and local government web resources and services.